»·PEaware :: N5686E KBUR-KAPV

N5686E :: KBUR-KAPV

FLIGHT INFORMATION

Flight Status: Arrived
Operator: Privately registered:
United States
More flights under this callsign
Pilot: Keauyon F. (32083)
Aircraft: CESSNA 172 SKYHAWK
(C172)
More flights by this aircraft type
Origin: KBUR Bob Hope-Burbank
United States
Destination: KAPV Apple Valley
United States
More flights between these airports :: More routes between these airports
Route: +KBUR DCT KAPV
File this flight plan on PilotEdge
Remarks:
Altitude:
(Current/Filed)
10,000ft
Speed:
(Current/Filed)
110kts
Departed: 17-Nov-20 11:47 AM
Arrived: 17-Nov-20 12:23 PM
Distance/Time
Traveled:
62nm/0:36
Distance/Time
To Go:
Arrived

Flight Plot

Page will automatically refresh every two minutes.

Flight plan parsing failed; only flown route is shown


Map Options




Map Legend


Flown Route
Filed Route
Departure Airport
Arrival Airport
Navaid (VOR, NDB)
Fix

Horizontal Profiles

Position Reports

Time Latitude Longitude Heading Altitude Ground
Speed
17-Nov-20 11:30 34.196536 -118.368875 1 729ft 0kts
17-Nov-20 11:31 34.196536 -118.368875 1 729ft 0kts
17-Nov-20 11:32 34.196536 -118.368875 1 729ft 0kts
17-Nov-20 11:33 34.196536 -118.368875 1 729ft 0kts
17-Nov-20 11:34 34.196536 -118.368875 1 729ft 0kts
17-Nov-20 11:35 34.196536 -118.368875 1 729ft 0kts
17-Nov-20 11:36 34.196536 -118.368875 1 729ft 0kts
17-Nov-20 11:37 34.196536 -118.368875 1 729ft 0kts
17-Nov-20 11:38 34.196536 -118.368875 1 729ft 0kts
17-Nov-20 11:39 34.196536 -118.368875 1 729ft 0kts
17-Nov-20 11:40 34.196536 -118.368875 1 729ft 0kts
17-Nov-20 11:41 34.196645 -118.366773 62 727ft 1kts
17-Nov-20 11:42 34.197292 -118.369110 19 730ft 0kts
17-Nov-20 11:43 34.197292 -118.369110 19 730ft 0kts
17-Nov-20 11:44 34.197292 -118.369110 19 730ft 0kts
17-Nov-20 11:45 34.197837 -118.367914 81 727ft 33kts
17-Nov-20 11:46 34.198425 -118.344027 89 1214ft 74kts
17-Nov-20 11:47 34.198168 -118.319170 94 1885ft 72kts
17-Nov-20 11:48 34.205263 -118.298360 64 2554ft 70kts
17-Nov-20 11:49 34.218200 -118.281588 30 3177ft 72kts
17-Nov-20 11:50 34.232604 -118.262685 69 3603ft 83kts
17-Nov-20 11:51 34.241673 -118.236778 70 4308ft 84kts
17-Nov-20 11:52 34.250818 -118.209302 73 5028ft 93kts
17-Nov-20 11:53 34.258946 -118.178114 74 5598ft 95kts
17-Nov-20 11:55 34.268224 -118.149526 75 6411ft 86kts
17-Nov-20 11:56 34.276427 -118.124175 76 7224ft 72kts
17-Nov-20 11:57 34.283598 -118.101833 76 7488ft 97kts
17-Nov-20 11:58 34.291659 -118.076900 75 7718ft 103kts
17-Nov-20 11:59 34.301883 -118.045136 76 7990ft 102kts
17-Nov-20 12:00 34.312129 -118.013266 76 8324ft 101kts
17-Nov-20 12:01 34.322505 -117.980961 77 8806ft 108kts
17-Nov-20 12:02 34.333932 -117.945338 77 9485ft 116kts
17-Nov-20 12:03 34.345137 -117.910427 79 9723ft 103kts
17-Nov-20 12:04 34.355219 -117.878886 80 9907ft 93kts
17-Nov-20 12:05 34.365368 -117.847170 79 10523ft 108kts
17-Nov-20 12:06 34.377001 -117.810721 78 10648ft 130kts
17-Nov-20 12:07 34.390014 -117.769907 77 10553ft 129kts
17-Nov-20 12:08 34.403725 -117.726930 76 10559ft 136kts
17-Nov-20 12:09 34.417780 -117.682752 75 9816ft 138kts
17-Nov-20 12:10 34.431689 -117.638956 74 8911ft 140kts
17-Nov-20 12:11 34.445641 -117.594966 73 8012ft 140kts
17-Nov-20 12:12 34.459691 -117.550610 72 7016ft 141kts
17-Nov-20 12:12 34.471346 -117.513764 71 6181ft 140kts
17-Nov-20 12:14 34.486804 -117.464803 72 5388ft 134kts
17-Nov-20 12:14 34.498602 -117.427416 71 4138ft 145kts
17-Nov-20 12:16 34.512556 -117.383091 72 3955ft 115kts
17-Nov-20 12:16 34.522374 -117.351917 71 4186ft 113kts
17-Nov-20 12:18 34.535381 -117.310505 71 4456ft 115kts
17-Nov-20 12:18 34.544867 -117.280278 71 4462ft 115kts
17-Nov-20 12:19 34.554191 -117.242064 84 4259ft 119kts
17-Nov-20 12:20 34.558538 -117.203790 82 3580ft 92kts
17-Nov-20 12:21 34.575283 -117.186797 16 2987ft 68kts
17-Nov-20 12:22 34.579182 -117.186544 276 3014ft 0kts
17-Nov-20 12:23 34.579182 -117.186544 276 3014ft 0kts
17-Nov-20 12:24 34.579182 -117.186544 276 3014ft 0kts
17-Nov-20 12:25 34.579182 -117.186544 276 3014ft 0kts
17-Nov-20 12:26 34.579182 -117.186544 276 3014ft 0kts
17-Nov-20 12:27 34.579182 -117.186544 276 3014ft 0kts
17-Nov-20 12:28 34.579182 -117.186544 276 3014ft 0kts
17-Nov-20 12:29 34.579182 -117.186544 276 3014ft 0kts
17-Nov-20 12:30 34.579182 -117.186544 276 3014ft 0kts
17-Nov-20 12:31 34.579182 -117.186544 276 3014ft 0kts
17-Nov-20 12:32 34.579182 -117.186544 276 3014ft 0kts
17-Nov-20 12:33 34.579182 -117.186544 276 3014ft 0kts
17-Nov-20 12:34 34.579182 -117.186544 276 3014ft 0kts
17-Nov-20 12:35 34.579182 -117.186544 276 3014ft 0kts
17-Nov-20 12:36 34.579182 -117.186544 276 3014ft 0kts

Navigation Log

Ident Type
Flight plan parsing failed, navigation log unavailable